createdAt,value
2018-12-21T00:00:22.228Z,7.10
2018-12-21T00:02:50.763Z,7.10
2018-12-21T00:05:19.357Z,7.10
2018-12-21T00:07:47.886Z,7.20
2018-12-21T00:10:16.442Z,7.20
2018-12-21T00:12:45.036Z,7.20
2018-12-21T00:15:13.740Z,7.20
2018-12-21T00:17:42.259Z,7.20
2018-12-21T00:20:10.923Z,7.20
2018-12-21T00:22:39.444Z,7.30
2018-12-21T00:25:07.983Z,7.20
2018-12-21T00:27:36.508Z,7.30
2018-12-21T00:30:07.066Z,7.20
2018-12-21T00:32:40.991Z,7.30
2018-12-21T00:35:14.961Z,7.30
2018-12-21T00:37:48.986Z,7.40
2018-12-21T00:40:22.712Z,7.30
2018-12-21T00:42:56.496Z,7.30
2018-12-21T00:45:30.696Z,7.30
2018-12-21T00:47:59.257Z,7.30
2018-12-21T00:50:27.811Z,7.30
2018-12-21T00:52:56.356Z,7.30
2018-12-21T00:55:24.892Z,7.30
2018-12-21T00:57:53.456Z,7.30
2018-12-21T01:00:25.266Z,7.30
2018-12-21T01:02:53.964Z,7.30
2018-12-21T01:05:22.552Z,7.30
2018-12-21T01:07:51.236Z,7.30
2018-12-21T01:10:19.888Z,7.30
2018-12-21T01:12:48.484Z,7.40
2018-12-21T01:15:17.129Z,7.40
2018-12-21T01:17:45.694Z,7.40
2018-12-21T01:20:14.247Z,7.30
2018-12-21T01:22:42.807Z,7.40
2018-12-21T01:25:11.988Z,7.40
2018-12-21T01:27:40.502Z,7.40
2018-12-21T01:30:09.357Z,7.40
2018-12-21T01:32:37.892Z,7.40
2018-12-21T01:35:06.572Z,7.40
2018-12-21T01:37:35.108Z,7.40
2018-12-21T01:40:03.841Z,7.40
2018-12-21T01:42:32.379Z,7.40
2018-12-21T01:45:00.927Z,7.40
2018-12-21T01:47:29.431Z,7.40
2018-12-21T01:49:57.970Z,7.40
2018-12-21T01:52:26.496Z,7.40
2018-12-21T01:54:55.094Z,7.40
2018-12-21T01:57:23.777Z,7.40
2018-12-21T01:59:52.296Z,7.40
2018-12-21T02:02:20.956Z,7.40
2018-12-21T02:04:49.521Z,7.40
2018-12-21T02:07:18.080Z,7.40
2018-12-21T02:09:46.618Z,7.30
2018-12-21T02:12:15.172Z,7.40
2018-12-21T02:14:43.702Z,7.30
2018-12-21T02:17:12.308Z,7.40
2018-12-21T02:19:40.887Z,7.40
2018-12-21T02:22:09.552Z,7.40
2018-12-21T02:24:38.081Z,7.40
2018-12-21T02:27:06.645Z,7.40
2018-12-21T02:29:35.164Z,7.40
2018-12-21T02:32:03.869Z,7.40
2018-12-21T02:34:32.390Z,7.30
2018-12-21T02:37:00.963Z,7.40
2018-12-21T02:39:29.496Z,7.40
2018-12-21T02:41:58.044Z,7.40
2018-12-21T02:44:26.611Z,7.40
2018-12-21T02:46:55.180Z,7.40
2018-12-21T02:49:23.724Z,7.40
2018-12-21T02:51:52.268Z,7.40
2018-12-21T02:54:20.829Z,7.50
2018-12-21T02:56:49.347Z,7.50
2018-12-21T02:59:17.888Z,7.40
2018-12-21T03:01:46.404Z,7.50
2018-12-21T03:04:14.972Z,7.50
2018-12-21T03:06:43.511Z,7.50
2018-12-21T03:09:12.083Z,7.50
2018-12-21T03:11:40.622Z,7.50
2018-12-21T03:14:09.179Z,7.50
2018-12-21T03:16:37.750Z,7.50
2018-12-21T03:19:06.394Z,7.50
2018-12-21T03:21:34.959Z,7.50
2018-12-21T03:24:03.504Z,7.50
2018-12-21T03:26:32.025Z,7.50
2018-12-21T03:29:00.542Z,7.50
2018-12-21T03:31:29.090Z,7.40
2018-12-21T03:33:57.623Z,7.40
2018-12-21T03:36:26.168Z,7.40
2018-12-21T03:38:54.702Z,7.40
2018-12-21T03:41:23.290Z,7.40
2018-12-21T03:43:51.834Z,7.40
2018-12-21T03:46:20.373Z,7.40
2018-12-21T03:48:48.891Z,7.40
2018-12-21T03:51:17.414Z,7.50
2018-12-21T03:53:45.984Z,7.50
2018-12-21T03:56:14.543Z,7.50
2018-12-21T03:58:43.100Z,7.50
2018-12-21T04:01:11.618Z,7.50
2018-12-21T04:03:40.180Z,7.50
2018-12-21T04:06:08.692Z,7.50
2018-12-21T04:08:37.246Z,7.50
2018-12-21T04:11:05.767Z,7.60
2018-12-21T04:13:34.329Z,7.50
2018-12-21T04:16:02.920Z,7.50
2018-12-21T04:18:31.463Z,7.50
2018-12-21T04:20:59.988Z,7.50
2018-12-21T04:23:28.539Z,7.50
2018-12-21T04:25:57.075Z,7.50
2018-12-21T04:28:25.672Z,7.60
2018-12-21T04:30:54.214Z,7.60
2018-12-21T04:33:22.745Z,7.60
2018-12-21T04:35:51.331Z,7.50
2018-12-21T04:38:19.859Z,7.50
2018-12-21T04:40:48.427Z,7.40
2018-12-21T04:43:16.964Z,7.30
2018-12-21T04:45:45.526Z,7.30
2018-12-21T04:48:14.082Z,7.30
2018-12-21T04:50:42.646Z,7.30
2018-12-21T04:53:11.178Z,7.20
2018-12-21T04:55:39.734Z,7.30
2018-12-21T04:58:08.386Z,7.30
2018-12-21T05:00:37.045Z,7.30
2018-12-21T05:03:05.617Z,7.30
2018-12-21T05:05:34.185Z,7.20
2018-12-21T05:08:02.754Z,7.20
2018-12-21T05:10:31.306Z,7.30
2018-12-21T05:12:59.963Z,7.20
2018-12-21T05:15:29.227Z,7.20
2018-12-21T05:17:57.809Z,7.20
2018-12-21T05:20:26.404Z,7.20
2018-12-21T05:22:54.960Z,7.10
2018-12-21T05:25:23.521Z,7.10
2018-12-21T05:27:52.085Z,7.10
2018-12-21T05:30:20.647Z,7.10
2018-12-21T05:32:49.244Z,7.10
2018-12-21T05:35:17.971Z,7.10
2018-12-21T05:37:46.520Z,7.10
2018-12-21T05:40:15.060Z,7.10
2018-12-21T05:42:43.615Z,7.00
2018-12-21T05:45:12.175Z,7.00
2018-12-21T05:47:40.692Z,7.00
2018-12-21T05:50:09.257Z,7.00
2018-12-21T05:52:37.779Z,7.00
2018-12-21T05:55:06.372Z,7.00
2018-12-21T05:57:34.893Z,7.00
2018-12-21T06:00:03.876Z,7.00
2018-12-21T06:02:32.429Z,7.00
2018-12-21T06:05:01.004Z,7.00
2018-12-21T06:07:29.572Z,7.00
2018-12-21T06:09:58.137Z,7.10
2018-12-21T06:12:26.691Z,7.10
2018-12-21T06:14:56.275Z,7.10
2018-12-21T06:17:24.800Z,7.10
2018-12-21T06:19:53.332Z,7.10
2018-12-21T06:22:21.921Z,7.10
2018-12-21T06:24:50.460Z,7.10
2018-12-21T06:27:19.008Z,7.10
2018-12-21T06:29:47.565Z,7.10
2018-12-21T06:32:16.121Z,7.10
2018-12-21T06:34:44.656Z,7.10
2018-12-21T06:37:13.218Z,7.10
2018-12-21T06:39:41.865Z,7.10
2018-12-21T06:42:10.450Z,7.10
2018-12-21T06:44:39.008Z,7.20
2018-12-21T06:47:07.718Z,7.20
2018-12-21T06:49:36.277Z,7.20
2018-12-21T06:52:04.876Z,7.20
2018-12-21T06:54:33.412Z,7.20
2018-12-21T06:57:01.961Z,7.20
2018-12-21T06:59:30.512Z,7.20
2018-12-21T07:01:59.060Z,7.20
2018-12-21T07:04:28.788Z,7.20
2018-12-21T07:06:57.352Z,7.20
2018-12-21T07:09:25.917Z,7.20
2018-12-21T07:11:54.494Z,7.20
2018-12-21T07:14:23.036Z,7.20
2018-12-21T07:16:51.611Z,7.20
2018-12-21T07:19:20.206Z,7.20
2018-12-21T07:21:48.736Z,7.20
2018-12-21T07:24:17.510Z,7.20
2018-12-21T07:26:46.074Z,7.20
2018-12-21T07:29:14.751Z,7.20
2018-12-21T07:31:43.615Z,7.30
2018-12-21T07:34:12.184Z,7.30
2018-12-21T07:36:41.215Z,7.30
2018-12-21T07:39:09.771Z,7.30
2018-12-21T07:41:38.327Z,7.30
2018-12-21T07:44:07.018Z,7.30
2018-12-21T07:46:35.569Z,7.30
2018-12-21T07:49:04.137Z,7.30
2018-12-21T07:51:32.793Z,7.30
2018-12-21T07:54:01.487Z,7.40
2018-12-21T07:56:30.137Z,7.40
2018-12-21T07:58:58.696Z,7.40
2018-12-21T08:01:27.274Z,7.40
2018-12-21T08:03:55.885Z,7.40
2018-12-21T08:06:24.523Z,7.40
2018-12-21T08:08:53.935Z,7.40
2018-12-21T08:11:22.575Z,7.40
2018-12-21T08:13:51.183Z,7.40
2018-12-21T08:16:19.800Z,7.40
2018-12-21T08:18:48.458Z,7.40
2018-12-21T08:21:17.363Z,7.40
2018-12-21T08:23:45.900Z,7.50
2018-12-21T08:26:14.429Z,7.50
2018-12-21T08:28:43.027Z,7.50
2018-12-21T08:31:11.663Z,7.50
2018-12-21T08:33:40.257Z,7.50
2018-12-21T08:36:08.848Z,7.50
2018-12-21T08:38:37.588Z,7.60
2018-12-21T08:41:06.171Z,7.60
2018-12-21T08:43:34.750Z,7.60
2018-12-21T08:46:03.307Z,7.60
2018-12-21T08:48:31.928Z,7.60
2018-12-21T08:51:00.474Z,7.70
2018-12-21T08:53:29.020Z,7.70
2018-12-21T08:55:57.613Z,7.70
2018-12-21T08:58:26.223Z,7.70
2018-12-21T09:00:54.769Z,7.80
2018-12-21T09:03:23.334Z,7.90
2018-12-21T09:05:51.996Z,7.90
2018-12-21T09:08:20.569Z,7.90
2018-12-21T09:10:49.240Z,7.90
2018-12-21T09:13:17.829Z,7.90
2018-12-21T09:15:46.453Z,8.00
2018-12-21T09:18:15.186Z,7.90
2018-12-21T09:20:43.720Z,7.90
2018-12-21T09:23:12.338Z,7.90
2018-12-21T09:25:40.972Z,7.90
2018-12-21T09:28:09.554Z,7.90
2018-12-21T09:30:38.732Z,8.00
2018-12-21T09:33:07.293Z,8.00
2018-12-21T09:35:36.018Z,8.00
2018-12-21T09:38:04.672Z,8.00
2018-12-21T09:40:33.441Z,8.00
2018-12-21T09:43:02.024Z,8.00
2018-12-21T09:45:30.635Z,8.00
2018-12-21T09:47:59.848Z,8.00
2018-12-21T09:50:28.524Z,8.10
2018-12-21T09:52:57.748Z,8.10
2018-12-21T09:55:26.577Z,8.10
2018-12-21T09:57:55.141Z,8.20
2018-12-21T10:00:23.762Z,8.20
2018-12-21T10:02:52.316Z,8.20
2018-12-21T10:05:20.888Z,8.20
2018-12-21T10:07:50.094Z,8.20
2018-12-21T10:10:18.741Z,8.30
2018-12-21T10:12:47.283Z,8.30
2018-12-21T10:15:15.976Z,8.30
2018-12-21T10:17:44.580Z,8.40
2018-12-21T10:20:13.141Z,8.40
2018-12-21T10:22:41.840Z,8.40
2018-12-21T10:25:10.423Z,8.40
2018-12-21T10:27:39.064Z,8.50
2018-12-21T10:30:10.093Z,8.50
2018-12-21T10:32:38.784Z,8.50
2018-12-21T10:35:07.412Z,8.50
2018-12-21T10:37:35.996Z,8.60
2018-12-21T10:40:04.816Z,8.60
2018-12-21T10:42:33.411Z,8.70
2018-12-21T10:45:01.965Z,8.80
2018-12-21T10:47:30.532Z,8.90
2018-12-21T10:49:59.106Z,9.00
2018-12-21T10:52:27.757Z,9.10
2018-12-21T10:54:56.336Z,9.10
2018-12-21T10:57:25.535Z,9.10
2018-12-21T10:59:54.088Z,9.10
2018-12-21T11:02:22.651Z,9.20
2018-12-21T11:04:51.224Z,9.30
2018-12-21T11:07:19.764Z,9.40
2018-12-21T11:09:48.335Z,9.50
2018-12-21T11:12:16.885Z,9.60
2018-12-21T11:14:45.825Z,9.70
2018-12-21T11:17:14.358Z,9.80
2018-12-21T11:19:42.951Z,10.00
2018-12-21T11:22:11.481Z,10.10
2018-12-21T11:24:40.060Z,10.30
2018-12-21T11:27:08.617Z,10.60
2018-12-21T11:29:37.204Z,10.80
2018-12-21T11:32:05.971Z,10.90
2018-12-21T11:34:34.545Z,11.00
2018-12-21T11:37:06.724Z,11.30
2018-12-21T11:39:35.288Z,11.30
2018-12-21T11:42:03.892Z,11.40
2018-12-21T11:44:32.442Z,11.50
2018-12-21T11:47:01.045Z,11.60
2018-12-21T11:49:29.616Z,11.50
2018-12-21T11:51:58.193Z,11.50
2018-12-21T11:54:27.082Z,11.60
2018-12-21T11:56:55.804Z,11.70
2018-12-21T11:59:24.344Z,11.70
2018-12-21T12:01:52.917Z,11.70
2018-12-21T12:04:21.468Z,11.70
2018-12-21T12:06:50.045Z,11.70
2018-12-21T12:09:18.770Z,11.80
2018-12-21T12:11:47.322Z,11.90
2018-12-21T12:14:16.276Z,11.90
2018-12-21T12:16:44.859Z,11.90
2018-12-21T12:19:13.613Z,11.90
2018-12-21T12:21:42.259Z,11.90
2018-12-21T12:24:10.829Z,11.90
2018-12-21T12:26:44.461Z,12.00
2018-12-21T12:29:10.086Z,12.10
2018-12-21T12:31:38.749Z,12.10
2018-12-21T12:34:07.332Z,12.10
2018-12-21T12:36:35.876Z,12.20
2018-12-21T12:39:06.326Z,12.20
2018-12-21T12:41:34.907Z,12.30
2018-12-21T12:44:03.674Z,12.20
2018-12-21T12:46:32.285Z,12.20
2018-12-21T12:49:00.840Z,12.20
2018-12-21T12:51:29.384Z,12.30
2018-12-21T12:53:57.939Z,12.30
2018-12-21T12:56:26.556Z,12.30
2018-12-21T12:58:55.109Z,12.30
2018-12-21T13:01:23.698Z,12.40
2018-12-21T13:03:52.365Z,12.40
2018-12-21T13:06:20.960Z,12.40
2018-12-21T13:08:50.160Z,12.50
2018-12-21T13:11:18.789Z,12.50
2018-12-21T13:13:47.473Z,12.50
2018-12-21T13:16:16.236Z,12.60
2018-12-21T13:18:44.784Z,12.50
2018-12-21T13:21:13.352Z,12.60
2018-12-21T13:23:41.901Z,12.60
2018-12-21T13:26:10.439Z,12.60
2018-12-21T13:28:38.964Z,12.60
2018-12-21T13:31:08.844Z,12.50
2018-12-21T13:33:37.457Z,12.60
2018-12-21T13:36:07.057Z,12.60
2018-12-21T13:38:35.610Z,12.60
2018-12-21T13:41:04.189Z,12.60
2018-12-21T13:43:32.741Z,12.50
2018-12-21T13:46:01.289Z,12.50
2018-12-21T13:48:30.107Z,12.50
2018-12-21T13:50:58.632Z,12.50
2018-12-21T13:53:27.172Z,12.40
2018-12-21T13:55:55.697Z,12.40
2018-12-21T13:58:24.272Z,12.30
2018-12-21T14:00:52.824Z,12.30
2018-12-21T14:03:21.430Z,12.20
2018-12-21T14:05:50.053Z,12.20
2018-12-21T14:08:18.607Z,12.20
2018-12-21T14:10:47.224Z,12.30
2018-12-21T14:13:15.788Z,12.30
2018-12-21T14:15:44.326Z,12.30
2018-12-21T14:18:12.904Z,12.30
2018-12-21T14:20:41.428Z,12.30
2018-12-21T14:23:09.949Z,12.20
2018-12-21T14:25:38.998Z,12.20
2018-12-21T14:28:07.524Z,12.20
2018-12-21T14:30:36.172Z,12.20
2018-12-21T14:33:04.720Z,12.10
2018-12-21T14:35:33.289Z,12.10
2018-12-21T14:38:01.829Z,12.10
2018-12-21T14:40:30.400Z,12.00
2018-12-21T14:42:58.972Z,12.00
2018-12-21T14:45:27.581Z,12.00
2018-12-21T14:47:56.146Z,12.00
2018-12-21T14:50:24.707Z,11.90
2018-12-21T14:52:53.253Z,11.90
2018-12-21T14:55:21.804Z,11.90
2018-12-21T14:57:50.693Z,11.80
2018-12-21T15:00:19.300Z,11.80
2018-12-21T15:02:47.822Z,11.70
2018-12-21T15:05:16.361Z,11.70
2018-12-21T15:07:44.910Z,11.70
2018-12-21T15:10:13.470Z,11.70
2018-12-21T15:12:42.050Z,11.80
2018-12-21T15:15:10.626Z,12.00
2018-12-21T15:17:39.326Z,11.90
2018-12-21T15:20:10.280Z,11.90
2018-12-21T15:22:38.868Z,11.90
2018-12-21T15:25:07.916Z,11.90
2018-12-21T15:27:36.494Z,11.90
2018-12-21T15:30:07.377Z,11.90
2018-12-21T15:32:35.923Z,11.80
2018-12-21T15:35:04.656Z,11.80
2018-12-21T15:37:33.232Z,11.70
2018-12-21T15:40:01.792Z,11.70
2018-12-21T15:42:30.381Z,11.70
2018-12-21T15:44:58.946Z,11.70
2018-12-21T15:47:27.492Z,11.70
2018-12-21T15:49:56.073Z,11.70
2018-12-21T15:52:24.916Z,11.70
2018-12-21T15:54:53.595Z,11.70
2018-12-21T15:57:22.199Z,11.70
2018-12-21T15:59:50.744Z,11.60
2018-12-21T16:02:19.287Z,11.60
2018-12-21T16:04:48.133Z,11.50
2018-12-21T16:07:16.715Z,11.60
2018-12-21T16:09:45.361Z,11.50
2018-12-21T16:12:15.488Z,11.50
2018-12-21T16:14:44.661Z,11.40
2018-12-21T16:17:13.200Z,11.40
2018-12-21T16:19:41.915Z,11.40
2018-12-21T16:22:10.456Z,11.40
2018-12-21T16:24:39.020Z,11.40
2018-12-21T16:27:07.580Z,11.40
2018-12-21T16:29:36.228Z,11.40
2018-12-21T16:32:04.783Z,11.40
2018-12-21T16:34:33.324Z,11.40
2018-12-21T16:37:01.876Z,11.30
2018-12-21T16:39:30.412Z,11.40
2018-12-21T16:41:58.975Z,11.40
2018-12-21T16:44:27.529Z,11.40
2018-12-21T16:46:56.089Z,11.40
2018-12-21T16:49:24.615Z,11.40
2018-12-21T16:51:53.179Z,11.30
2018-12-21T16:54:21.715Z,11.30
2018-12-21T16:56:50.288Z,11.20
2018-12-21T16:59:18.823Z,11.20
2018-12-21T17:01:47.513Z,11.20
2018-12-21T17:04:16.061Z,11.20
2018-12-21T17:06:44.608Z,11.20
2018-12-21T17:09:13.210Z,11.20
2018-12-21T17:11:41.777Z,11.20
2018-12-21T17:14:10.363Z,11.20
2018-12-21T17:16:38.896Z,11.20
2018-12-21T17:19:14.080Z,11.20
2018-12-21T17:21:42.628Z,11.10
2018-12-21T17:24:11.181Z,11.20
2018-12-21T17:26:39.720Z,11.20
2018-12-21T17:29:08.285Z,11.20
2018-12-21T17:31:36.829Z,11.20
2018-12-21T17:34:05.394Z,11.20
2018-12-21T17:36:34.188Z,11.20
2018-12-21T17:39:03.554Z,11.20
2018-12-21T17:41:32.115Z,11.20
2018-12-21T17:44:00.643Z,11.20
2018-12-21T17:46:29.202Z,11.20
2018-12-21T17:48:57.752Z,11.20
2018-12-21T17:51:26.309Z,11.10
2018-12-21T17:53:54.878Z,11.10
2018-12-21T17:56:29.894Z,11.10
2018-12-21T17:58:53.988Z,11.00
2018-12-21T18:01:23.069Z,11.10
2018-12-21T18:03:56.398Z,11.10
2018-12-21T18:06:24.974Z,11.10
2018-12-21T18:08:53.536Z,11.10
2018-12-21T18:11:22.088Z,11.00
2018-12-21T18:13:50.639Z,11.00
2018-12-21T18:16:20.832Z,11.00
2018-12-21T18:18:49.568Z,11.10
2018-12-21T18:21:18.129Z,11.00
2018-12-21T18:23:48.727Z,11.00
2018-12-21T18:26:17.417Z,11.00
2018-12-21T18:28:46.013Z,11.00
2018-12-21T18:31:23.300Z,10.90
2018-12-21T18:33:51.912Z,10.90
2018-12-21T18:36:20.477Z,10.90
2018-12-21T18:38:49.010Z,10.90
2018-12-21T18:41:17.594Z,10.90
2018-12-21T18:43:46.129Z,10.90
2018-12-21T18:46:14.708Z,10.90
2018-12-21T18:48:43.231Z,10.90
2018-12-21T18:51:11.791Z,10.90
2018-12-21T18:53:40.525Z,10.90
2018-12-21T18:56:14.228Z,10.90
2018-12-21T18:58:42.834Z,11.00
2018-12-21T19:01:11.362Z,10.90
2018-12-21T19:03:39.917Z,11.00
2018-12-21T19:06:08.446Z,10.90
2018-12-21T19:08:37.020Z,10.90
2018-12-21T19:11:05.682Z,10.90
2018-12-21T19:13:38.613Z,10.80
2018-12-21T19:16:07.369Z,10.80
2018-12-21T19:18:35.937Z,10.70
2018-12-21T19:21:04.475Z,10.70
2018-12-21T19:23:33.049Z,10.70
2018-12-21T19:26:01.689Z,10.60
2018-12-21T19:28:30.234Z,10.60
2018-12-21T19:30:58.796Z,10.60
2018-12-21T19:33:27.375Z,10.60
2018-12-21T19:35:56.048Z,10.60
2018-12-21T19:38:24.624Z,10.60
2018-12-21T19:40:53.206Z,10.50
2018-12-21T19:43:28.170Z,10.50
2018-12-21T19:45:52.415Z,10.50
2018-12-21T19:48:21.028Z,10.50
2018-12-21T19:50:49.680Z,10.40
2018-12-21T19:53:18.276Z,10.50
2018-12-21T19:55:54.522Z,10.50
2018-12-21T19:58:23.116Z,10.50
2018-12-21T20:00:51.657Z,10.40
2018-12-21T20:03:20.241Z,10.50
2018-12-21T20:05:48.813Z,10.40
2018-12-21T20:08:17.381Z,10.40
2018-12-21T20:10:46.036Z,10.40
2018-12-21T20:13:15.215Z,10.40
2018-12-21T20:15:43.732Z,10.40
2018-12-21T20:18:12.291Z,10.40
2018-12-21T20:20:40.842Z,10.40
2018-12-21T20:23:09.389Z,10.30
2018-12-21T20:25:38.357Z,10.30
2018-12-21T20:28:06.988Z,10.30
2018-12-21T20:30:35.700Z,10.30
2018-12-21T20:33:04.272Z,10.30
2018-12-21T20:35:33.181Z,10.30
2018-12-21T20:38:02.446Z,10.30
2018-12-21T20:40:31.013Z,10.30
2018-12-21T20:43:00.455Z,10.30
2018-12-21T20:45:29.035Z,10.30
2018-12-21T20:47:57.589Z,10.30
2018-12-21T20:50:26.312Z,10.40
2018-12-21T20:52:54.855Z,10.40
2018-12-21T20:55:23.431Z,10.30
2018-12-21T20:57:55.912Z,10.40
2018-12-21T21:00:24.514Z,10.40
2018-12-21T21:02:53.053Z,10.40
2018-12-21T21:05:21.625Z,10.40
2018-12-21T21:07:50.213Z,10.40
2018-12-21T21:10:18.842Z,10.40
2018-12-21T21:12:47.395Z,10.30
2018-12-21T21:15:15.961Z,10.30
2018-12-21T21:17:44.512Z,10.40
2018-12-21T21:20:15.021Z,10.30
2018-12-21T21:22:43.783Z,10.30
2018-12-21T21:25:12.511Z,10.40
2018-12-21T21:27:41.165Z,10.40
2018-12-21T21:30:13.253Z,10.40
2018-12-21T21:32:41.885Z,10.30
2018-12-21T21:35:10.471Z,10.40
2018-12-21T21:37:39.092Z,10.30
2018-12-21T21:40:11.376Z,10.30
2018-12-21T21:42:39.928Z,10.30
2018-12-21T21:45:08.564Z,10.30
2018-12-21T21:47:37.206Z,10.30
2018-12-21T21:50:06.437Z,10.30
2018-12-21T21:52:35.062Z,10.30
2018-12-21T21:55:04.707Z,10.30
2018-12-21T21:57:39.317Z,10.30
2018-12-21T22:00:04.740Z,10.30
2018-12-21T22:02:33.311Z,10.30
2018-12-21T22:05:01.901Z,10.30
2018-12-21T22:07:30.480Z,10.30
2018-12-21T22:09:59.031Z,10.30
2018-12-21T22:12:27.595Z,10.30
2018-12-21T22:14:56.124Z,10.30
2018-12-21T22:17:24.700Z,10.30
2018-12-21T22:19:53.232Z,10.30
2018-12-21T22:22:21.799Z,10.30
2018-12-21T22:24:50.434Z,10.30
2018-12-21T22:27:18.980Z,10.30
2018-12-21T22:29:47.536Z,10.30
2018-12-21T22:32:16.093Z,10.30
2018-12-21T22:34:44.650Z,10.20
2018-12-21T22:37:13.196Z,10.20
2018-12-21T22:39:41.789Z,10.20
2018-12-21T22:42:10.346Z,10.20
2018-12-21T22:44:38.920Z,10.20
2018-12-21T22:47:07.497Z,10.10
2018-12-21T22:49:36.079Z,10.10
2018-12-21T22:52:04.617Z,10.10
2018-12-21T22:54:33.202Z,10.10
2018-12-21T22:57:01.828Z,10.10
2018-12-21T22:59:30.406Z,10.10
2018-12-21T23:01:58.965Z,10.10
2018-12-21T23:04:27.551Z,10.10
2018-12-21T23:06:56.085Z,10.10
2018-12-21T23:09:24.688Z,10.10
2018-12-21T23:11:53.252Z,10.10
2018-12-21T23:14:21.824Z,10.10
2018-12-21T23:16:50.419Z,10.10
2018-12-21T23:19:18.984Z,10.10
2018-12-21T23:21:47.560Z,10.10
2018-12-21T23:24:17.541Z,10.10
2018-12-21T23:26:46.566Z,10.10
2018-12-21T23:29:15.145Z,10.10
2018-12-21T23:31:43.676Z,10.10
2018-12-21T23:34:12.252Z,10.10
2018-12-21T23:36:40.955Z,10.10
2018-12-21T23:39:09.524Z,10.10
2018-12-21T23:41:38.089Z,10.00
2018-12-21T23:44:06.680Z,10.00
2018-12-21T23:46:35.229Z,10.00
2018-12-21T23:49:03.907Z,10.00
2018-12-21T23:51:32.731Z,10.00
2018-12-21T23:54:01.263Z,9.90
2018-12-21T23:56:29.823Z,9.90
2018-12-21T23:58:58.355Z,9.90
